sensor_id;sensor_type;location;lat;lon;timestamp;pressure;altitude;pressure_sealevel;temperature;humidity
22605;BME280;11469;49.024;8.246;2023-03-23T00:02:15;99699.63;;;13.99;66.04
22605;BME280;11469;49.024;8.246;2023-03-23T00:04:41;99703.66;;;14.05;65.18
22605;BME280;11469;49.024;8.246;2023-03-23T00:07:08;99689.97;;;14.21;64.94
22605;BME280;11469;49.024;8.246;2023-03-23T00:09:33;99688.78;;;14.12;65.26
22605;BME280;11469;49.024;8.246;2023-03-23T00:12:00;99689.59;;;14.16;64.41
22605;BME280;11469;49.024;8.246;2023-03-23T00:14:32;99692.38;;;14.19;64.48
22605;BME280;11469;49.024;8.246;2023-03-23T00:17:10;99682.72;;;14.24;64.37
22605;BME280;11469;49.024;8.246;2023-03-23T00:19:38;99682.31;;;14.18;64.65
22605;BME280;11469;49.024;8.246;2023-03-23T00:22:14;99688.38;;;14.17;64.02
22605;BME280;11469;49.024;8.246;2023-03-23T00:24:41;99684.72;;;14.23;64.26
22605;BME280;11469;49.024;8.246;2023-03-23T00:27:07;99683.53;;;14.24;64.35
22605;BME280;11469;49.024;8.246;2023-03-23T00:29:34;99676.28;;;14.31;63.39
22605;BME280;11469;49.024;8.246;2023-03-23T00:31:59;99660.16;;;14.27;63.69
22605;BME280;11469;49.024;8.246;2023-03-23T00:34:25;99664.59;;;14.28;63.63
22605;BME280;11469;49.024;8.246;2023-03-23T00:36:52;99674.25;;;14.27;63.80
22605;BME280;11469;49.024;8.246;2023-03-23T00:39:25;99664.59;;;14.25;63.48
22605;BME280;11469;49.024;8.246;2023-03-23T00:41:52;99668.22;;;14.29;63.53
22605;BME280;11469;49.024;8.246;2023-03-23T00:44:18;99665.41;;;14.29;63.44
22605;BME280;11469;49.024;8.246;2023-03-23T00:46:47;99662.19;;;14.27;63.66
22605;BME280;11469;49.024;8.246;2023-03-23T00:49:24;99658.56;;;14.30;63.10
22605;BME280;11469;49.024;8.246;2023-03-23T00:51:54;99652.50;;;14.39;62.42
22605;BME280;11469;49.024;8.246;2023-03-23T00:54:20;99653.72;;;14.38;62.78
22605;BME280;11469;49.024;8.246;2023-03-23T00:56:46;99657.75;;;14.40;62.64
22605;BME280;11469;49.024;8.246;2023-03-23T00:59:12;99655.72;;;14.41;62.33
22605;BME280;11469;49.024;8.246;2023-03-23T01:01:38;99657.38;;;14.42;62.34
22605;BME280;11469;49.024;8.246;2023-03-23T01:04:05;99662.19;;;14.48;61.84
22605;BME280;11469;49.024;8.246;2023-03-23T01:06:33;99654.53;;;14.52;61.92
22605;BME280;11469;49.024;8.246;2023-03-23T01:09:01;99650.09;;;14.58;61.53
22605;BME280;11469;49.024;8.246;2023-03-23T01:11:28;99639.59;;;14.63;61.74
22605;BME280;11469;49.024;8.246;2023-03-23T01:13:54;99637.19;;;14.61;61.75
22605;BME280;11469;49.024;8.246;2023-03-23T01:16:20;99639.59;;;14.59;61.26
22605;BME280;11469;49.024;8.246;2023-03-23T01:18:46;99638.81;;;14.62;61.47
22605;BME280;11469;49.024;8.246;2023-03-23T01:21:14;99629.13;;;14.59;61.42
22605;BME280;11469;49.024;8.246;2023-03-23T01:23:40;99630.72;;;14.64;61.30
22605;BME280;11469;49.024;8.246;2023-03-23T01:26:07;99618.19;;;14.72;60.86
22605;BME280;11469;49.024;8.246;2023-03-23T01:28:34;99620.19;;;14.75;60.83
22605;BME280;11469;49.024;8.246;2023-03-23T01:31:05;99609.72;;;14.76;61.10
22605;BME280;11469;49.024;8.246;2023-03-23T01:33:31;99610.53;;;14.69;61.44
22605;BME280;11469;49.024;8.246;2023-03-23T01:35:57;99622.63;;;14.73;60.92
22605;BME280;11469;49.024;8.246;2023-03-23T01:38:23;99610.53;;;14.76;61.01
22605;BME280;11469;49.024;8.246;2023-03-23T01:40:48;99626.22;;;14.81;60.94
22605;BME280;11469;49.024;8.246;2023-03-23T01:43:15;99608.03;;;14.92;60.35
22605;BME280;11469;49.024;8.246;2023-03-23T01:45:41;99610.47;;;14.87;60.67
22605;BME280;11469;49.024;8.246;2023-03-23T01:48:17;99614.53;;;14.82;61.05
22605;BME280;11469;49.024;8.246;2023-03-23T01:50:53;99609.72;;;14.79;60.86
22605;BME280;11469;49.024;8.246;2023-03-23T01:53:22;99599.66;;;14.71;61.24
22605;BME280;11469;49.024;8.246;2023-03-23T01:55:50;99592.41;;;14.70;61.43
22605;BME280;11469;49.024;8.246;2023-03-23T01:58:21;99601.28;;;14.65;61.73
22605;BME280;11469;49.024;8.246;2023-03-23T02:00:52;99591.69;;;14.59;62.09
22605;BME280;11469;49.024;8.246;2023-03-23T02:03:19;99584.81;;;14.60;62.25
22605;BME280;11469;49.024;8.246;2023-03-23T02:05:45;99582.44;;;14.55;62.52
22605;BME280;11469;49.024;8.246;2023-03-23T02:08:11;99582.03;;;14.53;62.33
22605;BME280;11469;49.024;8.246;2023-03-23T02:10:38;99570.75;;;14.49;62.96
22605;BME280;11469;49.024;8.246;2023-03-23T02:13:06;99578.00;;;14.50;62.67
22605;BME280;11469;49.024;8.246;2023-03-23T02:18:23;99573.97;;;14.55;61.82
22605;BME280;11469;49.024;8.246;2023-03-23T02:27:01;99559.50;;;14.46;62.52
22605;BME280;11469;49.024;8.246;2023-03-23T02:30:03;99555.88;;;14.45;62.71
22605;BME280;11469;49.024;8.246;2023-03-23T02:35:34;99559.88;;;14.41;63.05
22605;BME280;11469;49.024;8.246;2023-03-23T02:38:07;99571.59;;;14.43;63.00
22605;BME280;11469;49.024;8.246;2023-03-23T02:41:01;99569.56;;;14.43;63.05
22605;BME280;11469;49.024;8.246;2023-03-23T02:43:31;99557.50;;;14.43;63.16
22605;BME280;11469;49.024;8.246;2023-03-23T02:45:59;99549.44;;;14.41;63.34
22605;BME280;11469;49.024;8.246;2023-03-23T02:48:29;99549.03;;;14.43;63.59
22605;BME280;11469;49.024;8.246;2023-03-23T02:50:56;99549.44;;;14.45;63.09
22605;BME280;11469;49.024;8.246;2023-03-23T02:53:24;99550.25;;;14.42;63.41
22605;BME280;11469;49.024;8.246;2023-03-23T02:55:52;99552.63;;;14.40;64.20
22605;BME280;11469;49.024;8.246;2023-03-23T02:58:20;99561.09;;;14.40;64.08
22605;BME280;11469;49.024;8.246;2023-03-23T03:00:49;99555.47;;;14.40;64.02
22605;BME280;11469;49.024;8.246;2023-03-23T03:03:21;99560.72;;;14.41;63.96
22605;BME280;11469;49.024;8.246;2023-03-23T03:10:55;99551.84;;;14.39;63.99
22605;BME280;11469;49.024;8.246;2023-03-23T03:14:00;99549.84;;;14.33;65.00
22605;BME280;11469;49.024;8.246;2023-03-23T03:16:35;99564.34;;;14.27;64.96
22605;BME280;11469;49.024;8.246;2023-03-23T03:19:03;99554.69;;;14.25;65.52
22605;BME280;11469;49.024;8.246;2023-03-23T03:21:34;99543.81;;;14.20;65.87
22605;BME280;11469;49.024;8.246;2023-03-23T03:24:03;99550.25;;;14.24;65.74
22605;BME280;11469;49.024;8.246;2023-03-23T03:26:30;99550.28;;;14.20;66.38
22605;BME280;11469;49.024;8.246;2023-03-23T03:28:57;99547.06;;;14.18;66.43
22605;BME280;11469;49.024;8.246;2023-03-23T03:31:28;99544.69;;;14.17;66.72
22605;BME280;11469;49.024;8.246;2023-03-23T03:33:54;99555.94;;;14.17;66.87
22605;BME280;11469;49.024;8.246;2023-03-23T03:36:24;99551.88;;;14.18;66.90
22605;BME280;11469;49.024;8.246;2023-03-23T03:38:51;99551.13;;;14.17;67.14
22605;BME280;11469;49.024;8.246;2023-03-23T03:41:18;99545.88;;;14.16;67.03
22605;BME280;11469;49.024;8.246;2023-03-23T03:43:44;99553.13;;;14.17;67.44
22605;BME280;11469;49.024;8.246;2023-03-23T03:46:09;99557.56;;;14.14;67.46
22605;BME280;11469;49.024;8.246;2023-03-23T03:48:35;99545.06;;;14.15;67.28
22605;BME280;11469;49.024;8.246;2023-03-23T03:51:01;99550.69;;;14.19;67.16
22605;BME280;11469;49.024;8.246;2023-03-23T03:53:27;99553.50;;;14.19;67.41
22605;BME280;11469;49.024;8.246;2023-03-23T03:55:52;99553.94;;;14.17;67.21
22605;BME280;11469;49.024;8.246;2023-03-23T03:58:22;99547.50;;;14.13;68.01
22605;BME280;11469;49.024;8.246;2023-03-23T04:00:48;99547.03;;;14.25;66.62
22605;BME280;11469;49.024;8.246;2023-03-23T04:03:14;99549.06;;;14.21;67.04
22605;BME280;11469;49.024;8.246;2023-03-23T04:05:40;99559.13;;;14.22;66.91
22605;BME280;11469;49.024;8.246;2023-03-23T04:08:06;99563.16;;;14.21;67.46
22605;BME280;11469;49.024;8.246;2023-03-23T04:10:32;99563.94;;;14.22;67.48
22605;BME280;11469;49.024;8.246;2023-03-23T04:12:58;99567.19;;;14.20;67.66
22605;BME280;11469;49.024;8.246;2023-03-23T04:15:24;99576.84;;;14.19;67.49
22605;BME280;11469;49.024;8.246;2023-03-23T04:17:50;99580.88;;;14.22;67.23
22605;BME280;11469;49.024;8.246;2023-03-23T04:20:15;99578.06;;;14.18;67.64
22605;BME280;11469;49.024;8.246;2023-03-23T04:22:45;99582.09;;;14.17;67.95
22605;BME280;11469;49.024;8.246;2023-03-23T04:25:15;99589.34;;;14.15;68.11
22605;BME280;11469;49.024;8.246;2023-03-23T04:27:41;99586.09;;;14.23;67.81
22605;BME280;11469;49.024;8.246;2023-03-23T04:30:12;99596.97;;;14.21;67.45
22605;BME280;11469;49.024;8.246;2023-03-23T04:32:38;99585.69;;;14.25;67.68
22605;BME280;11469;49.024;8.246;2023-03-23T04:35:06;99582.47;;;14.19;68.15
22605;BME280;11469;49.024;8.246;2023-03-23T04:37:32;99589.72;;;14.20;67.86
22605;BME280;11469;49.024;8.246;2023-03-23T04:39:57;99594.59;;;14.16;68.13
22605;BME280;11469;49.024;8.246;2023-03-23T04:42:30;99600.19;;;14.20;68.17
22605;BME280;11469;49.024;8.246;2023-03-23T04:44:59;99599.38;;;14.19;68.32
22605;BME280;11469;49.024;8.246;2023-03-23T04:47:26;99612.66;;;14.22;68.28
22605;BME280;11469;49.024;8.246;2023-03-23T04:49:57;99613.09;;;14.17;68.88
22605;BME280;11469;49.024;8.246;2023-03-23T04:52:24;99613.91;;;14.14;69.34
22605;BME280;11469;49.024;8.246;2023-03-23T04:54:51;99611.50;;;14.09;69.52
22605;BME280;11469;49.024;8.246;2023-03-23T04:57:18;99621.16;;;14.12;68.46
22605;BME280;11469;49.024;8.246;2023-03-23T04:59:43;99619.94;;;14.13;69.87
22605;BME280;11469;49.024;8.246;2023-03-23T05:02:10;99618.75;;;14.10;71.22
22605;BME280;11469;49.024;8.246;2023-03-23T05:04:36;99624.38;;;14.07;71.63
22605;BME280;11469;49.024;8.246;2023-03-23T05:07:03;99613.91;;;14.04;70.52
22605;BME280;11469;49.024;8.246;2023-03-23T05:09:28;99622.78;;;14.02;70.80
22605;BME280;11469;49.024;8.246;2023-03-23T05:11:54;99631.63;;;14.01;71.55
22605;BME280;11469;49.024;8.246;2023-03-23T05:14:20;99621.16;;;14.01;71.86
22605;BME280;11469;49.024;8.246;2023-03-23T05:16:46;99615.53;;;13.98;72.81
22605;BME280;11469;49.024;8.246;2023-03-23T05:19:14;99614.31;;;13.95;73.25
22605;BME280;11469;49.024;8.246;2023-03-23T05:21:40;99609.50;;;13.88;72.60
22605;BME280;11469;49.024;8.246;2023-03-23T05:24:05;99616.75;;;13.86;72.82
22605;BME280;11469;49.024;8.246;2023-03-23T05:26:31;99619.16;;;13.84;73.27
22605;BME280;11469;49.024;8.246;2023-03-23T05:28:57;99628.81;;;13.79;73.93
22605;BME280;11469;49.024;8.246;2023-03-23T05:31:24;99622.38;;;13.79;73.19
22605;BME280;11469;49.024;8.246;2023-03-23T05:33:50;99626.00;;;13.76;73.16
22605;BME280;11469;49.024;8.246;2023-03-23T05:36:16;99626.38;;;13.74;74.10
22605;BME280;11469;49.024;8.246;2023-03-23T05:38:41;99627.59;;;13.73;73.33
22605;BME280;11469;49.024;8.246;2023-03-23T05:41:14;99630.00;;;13.75;73.18
22605;BME280;11469;49.024;8.246;2023-03-23T05:43:40;99625.63;;;13.70;74.25
22605;BME280;11469;49.024;8.246;2023-03-23T05:46:06;99628.81;;;13.69;73.67
22605;BME280;11469;49.024;8.246;2023-03-23T05:48:33;99640.88;;;13.66;74.30
22605;BME280;11469;49.024;8.246;2023-03-23T05:50:58;99635.66;;;13.68;74.09
22605;BME280;11469;49.024;8.246;2023-03-23T05:53:24;99634.06;;;13.70;74.06
22605;BME280;11469;49.024;8.246;2023-03-23T05:55:50;99631.25;;;13.67;74.03
22605;BME280;11469;49.024;8.246;2023-03-23T05:58:16;99621.59;;;13.68;74.78
22605;BME280;11469;49.024;8.246;2023-03-23T06:00:42;99621.59;;;13.64;74.10
22605;BME280;11469;49.024;8.246;2023-03-23T06:03:08;99614.72;;;13.72;73.39
22605;BME280;11469;49.024;8.246;2023-03-23T06:05:33;99624.81;;;13.70;73.81
22605;BME280;11469;49.024;8.246;2023-03-23T06:07:59;99630.81;;;13.75;74.19
22605;BME280;11469;49.024;8.246;2023-03-23T06:10:25;99626.78;;;13.73;74.33
22605;BME280;11469;49.024;8.246;2023-03-23T06:12:52;99637.66;;;13.78;74.01
22605;BME280;11469;49.024;8.246;2023-03-23T06:15:18;99628.00;;;13.75;73.53
22605;BME280;11469;49.024;8.246;2023-03-23T06:17:44;99639.66;;;13.74;74.31
22605;BME280;11469;49.024;8.246;2023-03-23T06:20:09;99650.16;;;13.70;74.24
22605;BME280;11469;49.024;8.246;2023-03-23T06:22:39;99647.34;;;13.70;73.89
22605;BME280;11469;49.024;8.246;2023-03-23T06:25:09;99652.97;;;13.70;73.79
22605;BME280;11469;49.024;8.246;2023-03-23T06:27:36;99661.41;;;13.70;73.77
22605;BME280;11469;49.024;8.246;2023-03-23T06:30:03;99668.63;;;13.78;72.70
22605;BME280;11469;49.024;8.246;2023-03-23T06:32:30;99659.38;;;13.81;72.73
22605;BME280;11469;49.024;8.246;2023-03-23T06:34:56;99670.25;;;13.86;72.24
22605;BME280;11469;49.024;8.246;2023-03-23T06:37:22;99671.06;;;13.90;72.79
22605;BME280;11469;49.024;8.246;2023-03-23T06:39:48;99678.31;;;13.91;72.65
22605;BME280;11469;49.024;8.246;2023-03-23T06:42:14;99685.16;;;13.90;72.35
22605;BME280;11469;49.024;8.246;2023-03-23T06:44:39;99691.16;;;13.85;72.96
22605;BME280;11469;49.024;8.246;2023-03-23T06:47:05;99700.81;;;13.84;72.69
22605;BME280;11469;49.024;8.246;2023-03-23T06:49:31;99695.59;;;13.89;71.63
22605;BME280;11469;49.024;8.246;2023-03-23T06:51:57;99701.25;;;13.93;71.15
22605;BME280;11469;49.024;8.246;2023-03-23T06:54:23;99710.91;;;13.99;70.35
22605;BME280;11469;49.024;8.246;2023-03-23T06:56:48;99717.34;;;14.03;70.18
22605;BME280;11469;49.024;8.246;2023-03-23T06:59:13;99723.00;;;14.03;71.09
22605;BME280;11469;49.024;8.246;2023-03-23T07:01:39;99725.81;;;14.07;70.85
22605;BME280;11469;49.024;8.246;2023-03-23T07:04:05;99727.41;;;14.18;69.82
22605;BME280;11469;49.024;8.246;2023-03-23T07:06:31;99722.16;;;14.27;69.54
22605;BME280;11469;49.024;8.246;2023-03-23T07:08:57;99725.78;;;14.35;69.57
22605;BME280;11469;49.024;8.246;2023-03-23T07:11:22;99735.47;;;14.38;69.83
22605;BME280;11469;49.024;8.246;2023-03-23T07:13:47;99735.09;;;14.43;70.33
22605;BME280;11469;49.024;8.246;2023-03-23T07:16:15;99721.00;;;14.43;70.46
22605;BME280;11469;49.024;8.246;2023-03-23T07:18:41;99721.38;;;14.48;70.99
22605;BME280;11469;49.024;8.246;2023-03-23T07:21:07;99716.16;;;14.50;69.67
22605;BME280;11469;49.024;8.246;2023-03-23T07:23:32;99722.19;;;14.56;69.94
22605;BME280;11469;49.024;8.246;2023-03-23T07:25:58;99718.94;;;14.68;70.58
22605;BME280;11469;49.024;8.246;2023-03-23T07:28:23;99720.13;;;14.74;69.70
22605;BME280;11469;49.024;8.246;2023-03-23T07:30:48;99720.91;;;14.82;70.14
22605;BME280;11469;49.024;8.246;2023-03-23T07:33:14;99727.75;;;14.81;69.60
22605;BME280;11469;49.024;8.246;2023-03-23T07:35:40;99723.34;;;14.83;69.47
22605;BME280;11469;49.024;8.246;2023-03-23T07:38:06;99726.53;;;14.85;69.92
22605;BME280;11469;49.024;8.246;2023-03-23T07:40:32;99723.72;;;14.89;69.59
22605;BME280;11469;49.024;8.246;2023-03-23T07:42:58;99726.53;;;14.92;70.02
22605;BME280;11469;49.024;8.246;2023-03-23T07:45:24;99732.97;;;14.97;69.83
22605;BME280;11469;49.024;8.246;2023-03-23T07:47:50;99732.56;;;14.98;69.64
22605;BME280;11469;49.024;8.246;2023-03-23T07:50:16;99737.38;;;15.05;69.73
22605;BME280;11469;49.024;8.246;2023-03-23T07:52:42;99741.00;;;15.09;69.97
22605;BME280;11469;49.024;8.246;2023-03-23T07:55:10;99744.59;;;15.13;69.65
22605;BME280;11469;49.024;8.246;2023-03-23T07:57:45;99739.41;;;15.01;70.66
22605;BME280;11469;49.024;8.246;2023-03-23T08:00:12;99744.66;;;14.95;70.93
22605;BME280;11469;49.024;8.246;2023-03-23T08:02:40;99749.50;;;14.91;71.26
22605;BME280;11469;49.024;8.246;2023-03-23T08:05:07;99750.72;;;14.93;70.94
22605;BME280;11469;49.024;8.246;2023-03-23T08:07:34;99754.75;;;14.96;71.17
22605;BME280;11469;49.024;8.246;2023-03-23T08:10:00;99761.19;;;15.00;71.09
22605;BME280;11469;49.024;8.246;2023-03-23T08:12:26;99763.19;;;15.03;71.61
22605;BME280;11469;49.024;8.246;2023-03-23T08:14:52;99759.16;;;15.01;71.89
22605;BME280;11469;49.024;8.246;2023-03-23T08:17:19;99762.78;;;15.05;72.45
22605;BME280;11469;49.024;8.246;2023-03-23T08:19:44;99764.75;;;15.15;72.48
22605;BME280;11469;49.024;8.246;2023-03-23T08:22:11;99757.84;;;15.26;71.96
22605;BME280;11469;49.024;8.246;2023-03-23T08:24:36;99759.81;;;15.40;71.66
22605;BME280;11469;49.024;8.246;2023-03-23T08:27:02;99759.75;;;15.54;71.13
22605;BME280;11469;49.024;8.246;2023-03-23T08:29:27;99773.84;;;15.62;70.35
22605;BME280;11469;49.024;8.246;2023-03-23T08:31:53;99761.31;;;15.70;70.11
22605;BME280;11469;49.024;8.246;2023-03-23T08:34:19;99770.09;;;15.86;69.47
22605;BME280;11469;49.024;8.246;2023-03-23T08:36:44;99767.63;;;15.95;69.81
22605;BME280;11469;49.024;8.246;2023-03-23T08:39:11;99765.97;;;16.01;68.88
22605;BME280;11469;49.024;8.246;2023-03-23T08:41:37;99775.56;;;16.14;68.88
22605;BME280;11469;49.024;8.246;2023-03-23T08:44:03;99779.59;;;16.13;67.82
22605;BME280;11469;49.024;8.246;2023-03-23T08:46:29;99776.09;;;15.99;68.88
22605;BME280;11469;49.024;8.246;2023-03-23T08:48:54;99785.81;;;15.94;69.14
22605;BME280;11469;49.024;8.246;2023-03-23T08:51:20;99805.22;;;15.88;69.17
22605;BME280;11469;49.024;8.246;2023-03-23T08:53:45;99816.16;;;15.79;70.32
22605;BME280;11469;49.024;8.246;2023-03-23T08:56:11;99814.56;;;15.75;70.41
22605;BME280;11469;49.024;8.246;2023-03-23T08:58:39;99819.81;;;15.69;71.90
22605;BME280;11469;49.024;8.246;2023-03-23T09:01:06;99814.59;;;15.64;71.96
22605;BME280;11469;49.024;8.246;2023-03-23T09:03:33;99815.78;;;15.70;73.26
22605;BME280;11469;49.024;8.246;2023-03-23T09:06:01;99817.75;;;15.80;72.80
22605;BME280;11469;49.024;8.246;2023-03-23T09:08:28;99820.94;;;15.89;72.84
22605;BME280;11469;49.024;8.246;2023-03-23T09:11:00;99822.13;;;15.96;73.37
22605;BME280;11469;49.024;8.246;2023-03-23T09:13:26;99832.56;;;16.06;73.71
22605;BME280;11469;49.024;8.246;2023-03-23T09:15:51;99824.03;;;16.09;72.53
22605;BME280;11469;49.024;8.246;2023-03-23T09:18:18;99829.66;;;16.16;71.73
22605;BME280;11469;49.024;8.246;2023-03-23T09:20:44;99831.38;;;16.03;71.89
22605;BME280;11469;49.024;8.246;2023-03-23T09:23:09;99833.41;;;15.99;72.74
22605;BME280;11469;49.024;8.246;2023-03-23T09:25:35;99829.91;;;15.70;72.46
22605;BME280;11469;49.024;8.246;2023-03-23T09:28:00;99843.66;;;15.65;73.83
22605;BME280;11469;49.024;8.246;2023-03-23T09:30:29;99852.50;;;15.74;74.57
22605;BME280;11469;49.024;8.246;2023-03-23T09:32:56;99842.41;;;15.73;76.06
22605;BME280;11469;49.024;8.246;2023-03-23T09:35:23;99840.00;;;15.64;75.88
22605;BME280;11469;49.024;8.246;2023-03-23T09:37:51;99842.00;;;15.71;75.31
22605;BME280;11469;49.024;8.246;2023-03-23T09:40:26;99848.00;;;15.87;75.75
22605;BME280;11469;49.024;8.246;2023-03-23T09:49:02;99846.97;;;15.35;79.17
22605;BME280;11469;49.024;8.246;2023-03-23T09:54:30;99849.00;;;15.23;80.24
22605;BME280;11469;49.024;8.246;2023-03-23T09:56:59;99853.03;;;15.19;79.54
22605;BME280;11469;49.024;8.246;2023-03-23T09:59:38;99858.66;;;15.26;80.59
22605;BME280;11469;49.024;8.246;2023-03-23T10:02:28;99873.59;;;15.26;79.71
22605;BME280;11469;49.024;8.246;2023-03-23T10:05:34;99874.44;;;15.06;79.67
22605;BME280;11469;49.024;8.246;2023-03-23T10:07:52;99866.38;;;15.01;80.50
22605;BME280;11469;49.024;8.246;2023-03-23T10:10:17;99861.97;;;14.96;79.91
22605;BME280;11469;49.024;8.246;2023-03-23T10:15:20;99866.00;;;14.88;82.89
22605;BME280;11469;49.024;8.246;2023-03-23T10:17:57;99871.63;;;14.84;83.77
22605;BME280;11469;49.024;8.246;2023-03-23T10:28:45;99873.63;;;14.66;87.74
22605;BME280;11469;49.024;8.246;2023-03-23T10:31:19;99874.03;;;14.72;89.57
22605;BME280;11469;49.024;8.246;2023-03-23T10:33:52;99888.53;;;14.70;89.70
22605;BME280;11469;49.024;8.246;2023-03-23T10:36:25;99879.28;;;14.70;89.69
22605;BME280;11469;49.024;8.246;2023-03-23T10:39:12;99873.25;;;14.64;89.05
22605;BME280;11469;49.024;8.246;2023-03-23T10:41:39;99876.88;;;14.54;87.98
22605;BME280;11469;49.024;8.246;2023-03-23T10:44:18;99880.91;;;14.56;89.91
22605;BME280;11469;49.024;8.246;2023-03-23T10:49:47;99879.69;;;14.54;87.46
22605;BME280;11469;49.024;8.246;2023-03-23T10:52:36;99886.13;;;14.54;88.02
22605;BME280;11469;49.024;8.246;2023-03-23T10:55:17;99884.50;;;14.68;86.97
22605;BME280;11469;49.024;8.246;2023-03-23T10:57:45;99884.94;;;14.84;86.63
22605;BME280;11469;49.024;8.246;2023-03-23T11:03:05;99884.53;;;14.85;85.03
22605;BME280;11469;49.024;8.246;2023-03-23T11:05:36;99899.03;;;14.80;85.22
22605;BME280;11469;49.024;8.246;2023-03-23T11:08:02;99885.72;;;14.70;85.11
22605;BME280;11469;49.024;8.246;2023-03-23T11:10:38;99882.50;;;14.79;85.96
22605;BME280;11469;49.024;8.246;2023-03-23T11:13:04;99891.78;;;14.86;84.69
22605;BME280;11469;49.024;8.246;2023-03-23T11:15:38;99879.28;;;14.70;83.47
22605;BME280;11469;49.024;8.246;2023-03-23T11:18:13;99889.38;;;14.85;83.71
22605;BME280;11469;49.024;8.246;2023-03-23T11:20:45;99886.53;;;14.96;81.73
22605;BME280;11469;49.024;8.246;2023-03-23T11:25:58;99877.63;;;15.15;81.53
22605;BME280;11469;49.024;8.246;2023-03-23T11:28:32;99870.38;;;15.21;80.58
22605;BME280;11469;49.024;8.246;2023-03-23T11:31:00;99875.22;;;15.24;79.25
22605;BME280;11469;49.024;8.246;2023-03-23T11:33:54;99872.78;;;15.30;79.14
22605;BME280;11469;49.024;8.246;2023-03-23T11:36:20;99868.75;;;15.16;77.96
22605;BME280;11469;49.024;8.246;2023-03-23T11:38:53;99869.97;;;15.26;77.09
22605;BME280;11469;49.024;8.246;2023-03-23T11:41:22;99859.47;;;15.26;75.54
22605;BME280;11469;49.024;8.246;2023-03-23T11:43:51;99863.50;;;15.29;74.65
22605;BME280;11469;49.024;8.246;2023-03-23T11:46:34;99866.72;;;15.27;74.06
22605;BME280;11469;49.024;8.246;2023-03-23T11:49:09;99863.91;;;15.31;75.16
22605;BME280;11469;49.024;8.246;2023-03-23T11:51:51;99860.66;;;15.40;74.51
22605;BME280;11469;49.024;8.246;2023-03-23T11:54:30;99855.81;;;15.47;74.39
22605;BME280;11469;49.024;8.246;2023-03-23T11:56:57;99863.84;;;15.56;73.58
22605;BME280;11469;49.024;8.246;2023-03-23T11:59:32;99856.97;;;15.64;72.68
22605;BME280;11469;49.024;8.246;2023-03-23T12:04:56;99849.25;;;15.79;71.67
22605;BME280;11469;49.024;8.246;2023-03-23T12:32:35;99836.84;;;15.48;71.45
22605;BME280;11469;49.024;8.246;2023-03-23T12:35:33;99829.56;;;15.50;71.56
22605;BME280;11469;49.024;8.246;2023-03-23T12:43:53;99818.31;;;15.43;72.46
22605;BME280;11469;49.024;8.246;2023-03-23T12:46:54;99805.38;;;15.46;72.55
22605;BME280;11469;49.024;8.246;2023-03-23T12:49:31;99806.56;;;15.55;72.60
22605;BME280;11469;49.024;8.246;2023-03-23T12:54:42;99808.94;;;15.68;73.19
22605;BME280;11469;49.024;8.246;2023-03-23T12:57:20;99811.38;;;15.66;71.26
22605;BME280;11469;49.024;8.246;2023-03-23T12:59:54;99811.75;;;15.71;71.40
22605;BME280;11469;49.024;8.246;2023-03-23T13:02:35;99805.72;;;15.66;69.91
22605;BME280;11469;49.024;8.246;2023-03-23T13:05:08;99801.72;;;15.52;69.63
22605;BME280;11469;49.024;8.246;2023-03-23T13:07:45;99800.94;;;15.45;69.57
22605;BME280;11469;49.024;8.246;2023-03-23T13:10:23;99802.53;;;15.53;69.80
22605;BME280;11469;49.024;8.246;2023-03-23T13:12:52;99798.53;;;15.43;69.06
22605;BME280;11469;49.024;8.246;2023-03-23T13:18:12;99796.50;;;15.51;69.99
22605;BME280;11469;49.024;8.246;2023-03-23T13:23:25;99759.69;;;15.72;69.10
22605;BME280;11469;49.024;8.246;2023-03-23T13:26:09;99752.72;;;15.91;68.55
22605;BME280;11469;49.024;8.246;2023-03-23T13:31:30;99749.25;;;16.21;67.41
22605;BME280;11469;49.024;8.246;2023-03-23T13:34:15;99744.34;;;16.32;68.14
22605;BME280;11469;49.024;8.246;2023-03-23T13:36:51;99742.66;;;16.38;67.16
22605;BME280;11469;49.024;8.246;2023-03-23T13:39:21;99732.94;;;16.43;66.68
22605;BME280;11469;49.024;8.246;2023-03-23T13:42:05;99744.97;;;16.54;67.21
22605;BME280;11469;49.024;8.246;2023-03-23T13:47:24;99739.81;;;16.42;67.06
22605;BME280;11469;49.024;8.246;2023-03-23T13:49:55;99741.41;;;16.43;67.59
22605;BME280;11469;49.024;8.246;2023-03-23T13:52:46;99728.06;;;16.47;67.07
22605;BME280;11469;49.024;8.246;2023-03-23T14:10:52;99732.53;;;16.44;67.56
22605;BME280;11469;49.024;8.246;2023-03-23T14:16:27;99719.97;;;16.49;67.86
22605;BME280;11469;49.024;8.246;2023-03-23T14:18:58;99715.44;;;16.55;68.39
22605;BME280;11469;49.024;8.246;2023-03-23T14:21:40;99705.59;;;16.74;68.85
22605;BME280;11469;49.024;8.246;2023-03-23T14:24:11;99710.41;;;16.77;67.57
22605;BME280;11469;49.024;8.246;2023-03-23T14:26:38;99706.81;;;16.73;67.34
22605;BME280;11469;49.024;8.246;2023-03-23T14:29:04;99721.34;;;16.75;67.59
22605;BME280;11469;49.024;8.246;2023-03-23T14:31:31;99718.13;;;16.73;67.46
22605;BME280;11469;49.024;8.246;2023-03-23T14:34:02;99715.72;;;16.71;67.42
22605;BME280;11469;49.024;8.246;2023-03-23T14:36:30;99710.47;;;16.70;68.65
22605;BME280;11469;49.024;8.246;2023-03-23T14:39:24;99711.59;;;16.79;67.78
22605;BME280;11469;49.024;8.246;2023-03-23T14:41:53;99706.38;;;16.74;67.43
22605;BME280;11469;49.024;8.246;2023-03-23T14:44:30;99709.59;;;16.76;67.79
22605;BME280;11469;49.024;8.246;2023-03-23T14:46:58;99701.09;;;16.76;67.44
22605;BME280;11469;49.024;8.246;2023-03-23T14:49:30;99701.91;;;16.77;66.88
22605;BME280;11469;49.024;8.246;2023-03-23T14:52:03;99699.16;;;16.70;66.98
22605;BME280;11469;49.024;8.246;2023-03-23T14:54:31;99699.56;;;16.68;67.50
22605;BME280;11469;49.024;8.246;2023-03-23T14:57:05;99707.69;;;16.63;68.47
22605;BME280;11469;49.024;8.246;2023-03-23T14:59:34;99705.69;;;16.59;68.28
22605;BME280;11469;49.024;8.246;2023-03-23T15:02:00;99707.81;;;16.52;68.95
22605;BME280;11469;49.024;8.246;2023-03-23T15:04:27;99702.59;;;16.47;68.98